METAR AND TAF INFORMATION
METAR FOR EGNX
ADDS - METARS form results

(2219 UTC 16 September 2019)
Data provider http://aviationweather.gov/metar/data/
 
METAR text: EGNX 162150Z 29008KT CAVOK 10/08 Q1023
Conditions at: EGNX (EAST MIDLANDS , GB) observed 2150 UTC 16 September 2019
Temperature: 10.0°C (50°F)
Dewpoint: 8.0°C (46°F) [RH = 87%]
Pressure (altimeter): 30.21 inches Hg (1023.0 mb)
Winds: from the WNW (290 degrees) at 9 MPH (8 knots; 4.1 m/s)
Visibility: 6 or more miles (10+ km)
Ceiling: ceiling and visibility are OK
Clouds: unknown
Weather: no significant weather observed at this time

METAR text: EGNX 162120Z 30007KT CAVOK 10/08 Q1023
Conditions at: EGNX (EAST MIDLANDS , GB) observed 2120 UTC 16 September 2019
Temperature: 10.0°C (50°F)
Dewpoint: 8.0°C (46°F) [RH = 87%]
Pressure (altimeter): 30.21 inches Hg (1023.0 mb)
Winds: from the WNW (300 degrees) at 8 MPH (7 knots; 3.6 m/s)
Visibility: 6 or more miles (10+ km)
Ceiling: ceiling and visibility are OK
Clouds: unknown
Weather: no significant weather observed at this time

Forecast for: EGNX (EAST MIDLANDS , GB)
Text: TAF EGNX 161658Z 1618/1718 28005KT 9999 SCT030
Forecast period: 1800 UTC 16 September 2019 to 0700 UTC 17 September 2019
Forecast type: FROM: standard forecast or significant change
Winds: from the W (280 degrees) at 6 MPH (5 knots; 2.6 m/s)
Visibility: 6 or more miles 10+ km)
Ceiling: at least 12,000 feet AGL
Clouds: scattered clouds at 3000 feet AGL
Weather: no significant weather forecast for this period
Text: BECMG 1707/1710 34010KT
Forecast period: 0700 to 1800 UTC 17 September 2019
Forecast type: BECOMING: Conditions expected to become as follows by 1000 UTC 17 September 2019
Winds: from the NNW (340 degrees) at 12 MPH (10 knots; 5.1 m/s)
Visibility: 6 or more miles 10+ km)
Ceiling: at least 12,000 feet AGL
Clouds: scattered clouds at 3000 feet AGL
Weather: no significant weather forecast for this period

 AIRPORT MAP

 RUNWAY INFORMATION
Runway 09 Runway length 9491 ft Runway width 151 ft
Runway elevation 306 ft Runway displaced threshold 590 ft Runway heading 88
Runway 27 Runway length 9491 ft Runway width 151 ft
Runway elevation 282 ft Runway displaced threshold 426 ft Runway heading 268

 AIRPORT FREQUENCIES
Type APP Name APP Frequency 134.175 MHZ
Type ATIS Name ATIS Frequency 128.225 MHZ
Type Fire servi Name Frequency 121.6 MHZ
Type GND Name GND Frequency 121.9 MHZ
Type TWR Name TWR Frequency 124 MHZ

 AIRPORT NEAR NAVIGATION AIDS



Datenschutz / Privacy Policy • Impressum / Imprint • Disclaimer

Powered by Virtual Airlines Manager [v2.6.2]